createdAt,value
2022-10-01T00:01:14.052Z,98399.87
2022-10-01T00:03:41.263Z,98396.59
2022-10-01T00:06:17.689Z,98391.13
2022-10-01T00:08:48.834Z,98390.31
2022-10-01T00:11:18.877Z,98392.25
2022-10-01T00:13:46.285Z,98402.34
2022-10-01T00:16:16.692Z,98401.78
2022-10-01T00:18:45.922Z,98404.81
2022-10-01T00:21:15.085Z,98405.91
2022-10-01T00:23:42.496Z,98406.72
2022-10-01T00:26:17.109Z,98405.63
2022-10-01T00:28:46.326Z,98406.72
2022-10-01T00:31:14.842Z,98409.44
2022-10-01T00:33:42.675Z,98403.44
2022-10-01T00:36:10.993Z,98407.00
2022-10-01T00:38:40.318Z,98409.19
2022-10-01T00:41:08.582Z,98411.66
2022-10-01T00:43:37.958Z,98414.66
2022-10-01T00:46:21.297Z,98413.84
2022-10-01T00:48:58.267Z,98413.56
2022-10-01T00:51:32.990Z,98409.19
2022-10-01T00:54:10.715Z,98401.00
2022-10-01T00:56:38.460Z,98404.03
2022-10-01T00:59:07.131Z,98409.47
2022-10-01T01:01:37.876Z,98404.03
2022-10-01T01:04:16.608Z,98402.38
2022-10-01T01:06:55.895Z,98404.84
2022-10-01T01:09:35.427Z,98408.37
2022-10-01T01:12:36.870Z,98407.56
2022-10-01T01:15:34.506Z,98409.19
2022-10-01T01:18:20.639Z,98406.75
2022-10-01T01:21:20.498Z,98397.75
2022-10-01T01:23:54.551Z,98399.38
2022-10-01T01:26:41.181Z,98398.56
2022-10-01T01:29:29.589Z,98397.75
2022-10-01T01:32:02.403Z,98401.56
2022-10-01T01:34:33.406Z,98398.03
2022-10-01T01:37:12.183Z,98400.75
2022-10-01T01:39:43.868Z,98393.37
2022-10-01T01:42:17.300Z,98395.28
2022-10-01T01:44:47.685Z,98394.47
2022-10-01T01:47:14.958Z,98377.81
2022-10-01T01:49:43.048Z,98374.28
2022-10-01T01:52:13.555Z,98361.72
2022-10-01T01:54:40.961Z,98364.44
2022-10-01T01:57:09.008Z,98371.53
2022-10-01T01:59:36.620Z,98376.47
2022-10-01T02:02:06.814Z,98371.53
2022-10-01T02:04:49.418Z,98373.16
2022-10-01T02:07:35.220Z,98379.44
2022-10-01T02:10:21.997Z,98377.53
2022-10-01T02:12:55.056Z,98371.25
2022-10-01T02:15:43.326Z,98360.28
2022-10-01T02:18:34.066Z,98358.38
2022-10-01T02:21:17.206Z,98356.75
2022-10-01T02:23:51.478Z,98364.41
2022-10-01T02:26:21.358Z,98368.78
2022-10-01T02:28:51.303Z,98367.12
2022-10-01T02:31:20.360Z,98371.78
2022-10-01T02:33:47.771Z,98370.16
2022-10-01T02:36:16.866Z,98363.88
2022-10-01T02:38:46.616Z,98350.50
2022-10-01T02:41:18.194Z,98353.25
2022-10-01T02:43:56.010Z,98367.72
2022-10-01T02:46:32.609Z,98367.72
2022-10-01T02:49:01.278Z,98369.91
2022-10-01T02:51:53.644Z,98380.81
2022-10-01T02:54:28.459Z,98377.00
2022-10-01T02:57:14.759Z,98380.53
2022-10-01T02:59:41.481Z,98372.63
2022-10-01T03:02:08.573Z,98367.19
2022-10-01T03:04:35.375Z,98369.63
2022-10-01T03:07:04.476Z,98389.56
2022-10-01T03:09:32.034Z,98385.19
2022-10-01T03:12:00.168Z,98383.28
2022-10-01T03:14:27.147Z,98394.19
2022-10-01T03:16:54.467Z,98386.00
2022-10-01T03:19:21.551Z,98393.91
2022-10-01T03:21:48.455Z,98387.34
2022-10-01T03:24:15.287Z,98393.91
2022-10-01T03:26:42.123Z,98394.19
2022-10-01T03:29:09.738Z,98395.00
2022-10-01T03:31:38.214Z,98389.25
2022-10-01T03:34:05.269Z,98383.00
2022-10-01T03:36:32.123Z,98390.09
2022-10-01T03:38:58.841Z,98390.91
2022-10-01T03:41:25.714Z,98397.19
2022-10-01T03:43:55.067Z,98401.81
2022-10-01T03:46:23.916Z,98407.28
2022-10-01T03:48:50.731Z,98406.47
2022-10-01T03:51:20.659Z,98409.19
2022-10-01T03:53:48.027Z,98415.47
2022-10-01T03:56:15.466Z,98409.19
2022-10-01T03:58:42.337Z,98409.72
2022-10-01T04:01:09.049Z,98404.81
2022-10-01T04:03:36.032Z,98404.81
2022-10-01T04:06:02.743Z,98401.78
2022-10-01T04:08:29.482Z,98406.44
2022-10-01T04:10:56.359Z,98403.69
2022-10-01T04:13:23.093Z,98401.78
2022-10-01T04:15:49.873Z,98396.06
2022-10-01T04:18:17.465Z,98399.63
2022-10-01T04:20:44.239Z,98393.34
2022-10-01T04:23:11.038Z,98390.31
2022-10-01T04:25:37.915Z,98386.22
2022-10-01T04:28:07.631Z,98388.94
2022-10-01T04:30:37.293Z,98376.94
2022-10-01T04:33:05.724Z,98385.16
2022-10-01T04:35:33.107Z,98387.88
2022-10-01T04:38:03.711Z,98384.06
2022-10-01T04:40:32.110Z,98394.44
2022-10-01T04:42:58.824Z,98393.34
2022-10-01T04:45:25.573Z,98401.53
2022-10-01T04:47:55.281Z,98397.72
2022-10-01T04:50:24.676Z,98401.25
2022-10-01T04:52:52.193Z,98400.16
2022-10-01T04:55:20.773Z,98401.78
2022-10-01T04:57:48.048Z,98398.81
2022-10-01T05:00:17.760Z,98402.88
2022-10-01T05:02:45.766Z,98416.25
2022-10-01T05:05:12.820Z,98416.25
2022-10-01T05:07:40.491Z,98419.00
2022-10-01T05:10:16.035Z,98415.19
2022-10-01T05:12:43.005Z,98413.53
2022-10-01T05:15:10.307Z,98408.87
2022-10-01T05:17:37.127Z,98418.72
2022-10-01T05:20:05.980Z,98414.91
2022-10-01T05:22:33.217Z,98420.91
2022-10-01T05:25:00.411Z,98420.09
2022-10-01T05:27:28.081Z,98416.53
2022-10-01T05:29:54.940Z,98419.81
2022-10-01T05:32:21.727Z,98412.19
2022-10-01T05:34:52.750Z,98410.25
2022-10-01T05:37:20.680Z,98416.53
2022-10-01T05:39:47.918Z,98414.63
2022-10-01T05:42:14.682Z,98420.09
2022-10-01T05:44:46.151Z,98422.28
2022-10-01T05:47:14.147Z,98421.47
2022-10-01T05:49:42.988Z,98415.72
2022-10-01T05:52:10.942Z,98426.66
2022-10-01T05:54:38.140Z,98422.81
2022-10-01T05:57:05.473Z,98421.19
2022-10-01T05:59:32.325Z,98424.44
2022-10-01T06:01:59.217Z,98430.72
2022-10-01T06:04:26.128Z,98428.56
2022-10-01T06:06:56.307Z,98422.28
2022-10-01T06:09:23.268Z,98426.38
2022-10-01T06:11:50.204Z,98428.00
2022-10-01T06:14:17.557Z,98427.19
2022-10-01T06:16:44.759Z,98429.09
2022-10-01T06:19:11.534Z,98434.56
2022-10-01T06:21:38.368Z,98430.72
2022-10-01T06:24:05.876Z,98433.16
2022-10-01T06:26:32.674Z,98434.56
2022-10-01T06:28:59.506Z,98428.81
2022-10-01T06:31:26.399Z,98428.53
2022-10-01T06:33:53.310Z,98424.16
2022-10-01T06:36:20.098Z,98427.44
2022-10-01T06:38:50.196Z,98427.12
2022-10-01T06:41:16.962Z,98432.59
2022-10-01T06:43:43.736Z,98417.03
2022-10-01T06:46:11.298Z,98418.66
2022-10-01T06:48:38.133Z,98410.47
2022-10-01T06:51:05.875Z,98413.47
2022-10-01T06:53:33.111Z,98412.38
2022-10-01T06:56:07.832Z,98411.28
2022-10-01T06:58:35.077Z,98411.56
2022-10-01T07:01:03.452Z,98409.13
2022-10-01T07:03:31.255Z,98420.59
2022-10-01T07:06:02.895Z,98415.94
2022-10-01T07:08:30.220Z,98421.69
2022-10-01T07:11:05.072Z,98422.78
2022-10-01T07:13:31.893Z,98417.84
2022-10-01T07:15:58.775Z,98411.84
2022-10-01T07:18:25.544Z,98412.38
2022-10-01T07:20:52.355Z,98414.00
2022-10-01T07:23:19.237Z,98414.84
2022-10-01T07:25:46.315Z,98409.38
2022-10-01T07:28:19.022Z,98408.28
2022-10-01T07:31:07.316Z,98417.56
2022-10-01T07:33:34.158Z,98412.91
2022-10-01T07:36:02.581Z,98415.66
2022-10-01T07:38:29.953Z,98416.75
2022-10-01T07:40:58.912Z,98417.28
2022-10-01T07:43:25.951Z,98414.56
2022-10-01T07:45:55.203Z,98416.19
2022-10-01T07:48:22.164Z,98423.00
2022-10-01T07:50:49.697Z,98415.09
2022-10-01T07:53:17.148Z,98420.25
2022-10-01T07:55:45.041Z,98428.16
2022-10-01T07:58:12.259Z,98430.09
2022-10-01T08:00:39.416Z,98428.16
2022-10-01T08:03:06.443Z,98430.09
2022-10-01T08:05:36.025Z,98428.16
2022-10-01T08:08:05.429Z,98434.97
2022-10-01T08:10:35.474Z,98446.72
2022-10-01T08:13:25.119Z,98434.16
2022-10-01T08:15:54.724Z,98427.59
2022-10-01T08:18:23.158Z,98433.06
2022-10-01T08:20:50.631Z,98428.69
2022-10-01T08:23:17.740Z,98430.59
2022-10-01T08:25:45.291Z,98432.78
2022-10-01T08:28:12.872Z,98440.97
2022-10-01T08:30:42.015Z,98439.34
2022-10-01T08:33:11.957Z,98435.50
2022-10-01T08:35:40.418Z,98436.31
2022-10-01T08:38:07.883Z,98426.75
2022-10-01T08:40:42.336Z,98423.19
2022-10-01T08:43:36.523Z,98414.19
2022-10-01T08:46:15.257Z,98436.03
2022-10-01T08:49:07.264Z,98435.75
2022-10-01T08:51:46.344Z,98444.47
2022-10-01T08:54:43.556Z,98443.38
2022-10-01T08:57:15.034Z,98444.19
2022-10-01T08:59:55.681Z,98450.47
2022-10-01T09:02:23.771Z,98439.53
2022-10-01T09:05:00.352Z,98433.25
2022-10-01T09:07:40.510Z,98420.41
2022-10-01T09:10:28.025Z,98431.34
2022-10-01T09:13:06.576Z,98432.16
2022-10-01T09:15:54.990Z,98433.25
2022-10-01T09:18:51.939Z,98425.88
2022-10-01T09:21:24.828Z,98432.16
2022-10-01T09:24:15.801Z,98424.78
2022-10-01T09:26:50.657Z,98419.59
2022-10-01T09:29:28.008Z,98416.34
2022-10-01T09:31:57.125Z,98419.12
2022-10-01T09:34:40.272Z,98410.91
2022-10-01T09:37:15.409Z,98409.00
2022-10-01T09:39:52.744Z,98414.47
2022-10-01T09:42:26.806Z,98422.38
2022-10-01T09:44:54.699Z,98427.03
2022-10-01T09:47:23.181Z,98424.28
2022-10-01T09:49:50.143Z,98425.09
2022-10-01T09:52:25.387Z,98430.56
2022-10-01T09:54:58.772Z,98428.12
2022-10-01T09:57:31.958Z,98424.28
2022-10-01T10:00:04.369Z,98425.91
2022-10-01T10:02:49.774Z,98416.63
2022-10-01T10:05:18.192Z,98423.19
2022-10-01T10:07:54.747Z,98419.34
2022-10-01T10:10:27.451Z,98425.63
2022-10-01T10:13:00.932Z,98421.50
2022-10-01T10:15:31.877Z,98423.97
2022-10-01T10:18:25.329Z,98418.78
2022-10-01T10:20:54.772Z,98411.41
2022-10-01T10:23:26.562Z,98416.28
2022-10-01T10:26:00.972Z,98418.47
2022-10-01T10:28:30.052Z,98417.63
2022-10-01T10:30:57.598Z,98418.75
2022-10-01T10:33:26.411Z,98416.00
2022-10-01T10:36:05.126Z,98417.63
2022-10-01T10:38:34.904Z,98414.91
2022-10-01T10:41:03.981Z,98412.19
2022-10-01T10:43:35.287Z,98410.25
2022-10-01T10:46:02.955Z,98403.69
2022-10-01T10:48:45.747Z,98402.88
2022-10-01T10:51:12.605Z,98398.50
2022-10-01T10:53:46.518Z,98398.50
2022-10-01T10:56:22.946Z,98391.66
2022-10-01T10:58:51.476Z,98390.81
2022-10-01T11:01:27.197Z,98389.72
2022-10-01T11:03:57.810Z,98387.81
2022-10-01T11:06:24.816Z,98383.69
2022-10-01T11:09:07.709Z,98383.94
2022-10-01T11:11:57.184Z,98385.56
2022-10-01T11:14:38.988Z,98378.16
2022-10-01T11:17:25.814Z,98369.97
2022-10-01T11:20:22.504Z,98366.12
2022-10-01T11:23:01.534Z,98363.63
2022-10-01T11:25:37.141Z,98358.97
2022-10-01T11:28:06.917Z,98362.25
2022-10-01T11:30:59.002Z,98361.66
2022-10-01T11:34:00.982Z,98352.38
2022-10-01T11:36:43.161Z,98354.00
2022-10-01T11:39:20.829Z,98348.22
2022-10-01T11:41:58.516Z,98339.78
2022-10-01T11:44:49.417Z,98352.03
2022-10-01T11:47:37.920Z,98335.34
2022-10-01T11:50:19.758Z,98338.31
2022-10-01T11:53:01.299Z,98333.38
2022-10-01T11:55:55.263Z,98336.34
2022-10-01T11:58:51.013Z,98331.69
2022-10-01T12:01:23.795Z,98322.09
2022-10-01T12:03:53.606Z,98329.19
2022-10-01T12:06:34.173Z,98325.63
2022-10-01T12:09:09.596Z,98318.25
2022-10-01T12:11:49.498Z,98316.31
2022-10-01T12:14:22.486Z,98307.25
2022-10-01T12:17:02.201Z,98311.59
2022-10-01T12:19:33.633Z,98315.69
2022-10-01T12:22:35.877Z,98310.72
2022-10-01T12:25:02.705Z,98306.59
2022-10-01T12:27:56.242Z,98313.41
2022-10-01T12:30:29.267Z,98312.00
2022-10-01T12:33:26.965Z,98298.84
2022-10-01T12:36:26.218Z,98295.50
2022-10-01T12:39:09.532Z,98294.44
2022-10-01T12:42:05.989Z,98293.84
2022-10-01T12:44:47.182Z,98291.63
2022-10-01T12:47:13.985Z,98284.25
2022-10-01T12:49:43.863Z,98285.56
2022-10-01T12:52:31.321Z,98277.06
2022-10-01T12:55:34.469Z,98272.13
2022-10-01T12:58:17.648Z,98270.19
2022-10-01T13:01:22.658Z,98272.03
2022-10-01T13:04:38.591Z,98261.91
2022-10-01T13:07:27.157Z,98266.78
2022-10-01T13:09:57.925Z,98261.00
2022-10-01T13:12:50.276Z,98257.16
2022-10-01T13:15:35.176Z,98262.63
2022-10-01T13:18:10.681Z,98258.00
2022-10-01T13:20:57.268Z,98249.50
2022-10-01T13:23:29.691Z,98246.78
2022-10-01T13:26:12.479Z,98241.28
2022-10-01T13:29:22.580Z,98245.41
2022-10-01T13:32:30.595Z,98240.19
2022-10-01T13:34:59.182Z,98238.47
2022-10-01T13:37:39.971Z,98236.56
2022-10-01T13:40:28.223Z,98232.41
2022-10-01T13:43:19.962Z,98223.91
2022-10-01T13:45:51.133Z,98221.66
2022-10-01T13:48:23.631Z,98229.59
2022-10-01T13:51:07.392Z,98229.28
2022-10-01T13:53:47.411Z,98230.63
2022-10-01T13:56:28.445Z,98242.38
2022-10-01T13:58:55.831Z,98230.31
2022-10-01T14:01:24.364Z,98231.94
2022-10-01T14:03:54.311Z,98232.75
2022-10-01T14:06:30.766Z,98227.00
2022-10-01T14:09:11.329Z,98234.94
2022-10-01T14:12:01.435Z,98231.06
2022-10-01T14:14:54.457Z,98231.59
2022-10-01T14:17:32.342Z,98231.00
2022-10-01T14:20:00.729Z,98220.56
2022-10-01T14:22:40.454Z,98226.25
2022-10-01T14:25:26.572Z,98222.41
2022-10-01T14:28:08.276Z,98225.66
2022-10-01T14:30:50.239Z,98225.03
2022-10-01T14:33:35.381Z,98225.84
2022-10-01T14:36:35.028Z,98221.19
2022-10-01T14:39:11.233Z,98231.03
2022-10-01T14:41:38.019Z,98222.31
2022-10-01T14:44:21.048Z,98219.56
2022-10-01T14:46:52.679Z,98217.34
2022-10-01T14:49:23.241Z,98225.03
2022-10-01T14:52:02.887Z,98222.59
2022-10-01T14:54:34.127Z,98225.34
2022-10-01T14:57:02.675Z,98222.59
2022-10-01T14:59:36.894Z,98220.69
2022-10-01T15:02:17.439Z,98210.84
2022-10-01T15:04:52.682Z,98201.50
2022-10-01T15:07:20.337Z,98196.03
2022-10-01T15:09:48.643Z,98187.50
2022-10-01T15:12:19.399Z,98193.81
2022-10-01T15:14:47.303Z,98204.75
2022-10-01T15:17:23.313Z,98203.66
2022-10-01T15:19:52.939Z,98210.75
2022-10-01T15:22:23.215Z,98211.88
2022-10-01T15:24:52.650Z,98220.88
2022-10-01T15:27:21.690Z,98221.19
2022-10-01T15:29:56.367Z,98216.22
2022-10-01T15:32:25.293Z,98231.03
2022-10-01T15:34:55.287Z,98230.72
2022-10-01T15:37:32.728Z,98223.63
2022-10-01T15:40:00.965Z,98219.25
2022-10-01T15:42:31.941Z,98214.91
2022-10-01T15:45:07.801Z,98216.81
2022-10-01T15:47:51.785Z,98214.38
2022-10-01T15:50:28.031Z,98215.00
2022-10-01T15:53:10.157Z,98208.69
2022-10-01T15:55:43.993Z,98211.75
2022-10-01T15:58:17.587Z,98214.78
2022-10-01T16:00:47.715Z,98216.69
2022-10-01T16:03:18.689Z,98212.34
2022-10-01T16:05:48.367Z,98207.16
2022-10-01T16:08:21.954Z,98211.00
2022-10-01T16:11:13.789Z,98206.94
2022-10-01T16:13:42.973Z,98216.56
2022-10-01T16:16:20.725Z,98211.41
2022-10-01T16:18:59.620Z,98211.66
2022-10-01T16:21:27.106Z,98216.34
2022-10-01T16:23:55.689Z,98220.19
2022-10-01T16:26:28.379Z,98213.38
2022-10-01T16:28:57.715Z,98214.50
2022-10-01T16:31:29.490Z,98203.03
2022-10-01T16:33:56.331Z,98215.09
2022-10-01T16:36:26.292Z,98220.03
2022-10-01T16:38:53.774Z,98209.41
2022-10-01T16:41:26.358Z,98215.97
2022-10-01T16:43:56.279Z,98219.84
2022-10-01T16:46:23.176Z,98227.00
2022-10-01T16:48:53.818Z,98236.34
2022-10-01T16:51:22.050Z,98234.72
2022-10-01T16:53:50.246Z,98240.75
2022-10-01T16:56:17.128Z,98240.22
2022-10-01T16:58:44.414Z,98249.84
2022-10-01T17:01:14.867Z,98251.56
2022-10-01T17:03:41.972Z,98256.81
2022-10-01T17:06:08.767Z,98268.03
2022-10-01T17:08:35.542Z,98272.47
2022-10-01T17:11:03.128Z,98260.50
2022-10-01T17:13:35.066Z,98241.09
2022-10-01T17:16:02.298Z,98191.31
2022-10-01T17:18:29.101Z,98176.31
2022-10-01T17:20:56.304Z,98198.19
2022-10-01T17:23:23.352Z,98208.63
2022-10-01T17:25:50.463Z,98240.94
2022-10-01T17:28:20.135Z,98244.25
2022-10-01T17:30:48.232Z,98261.25
2022-10-01T17:33:18.806Z,98275.53
2022-10-01T17:35:51.558Z,98275.00
2022-10-01T17:38:19.342Z,98266.00
2022-10-01T17:40:46.805Z,98281.06
2022-10-01T17:43:15.714Z,98280.25
2022-10-01T17:45:42.869Z,98281.66
2022-10-01T17:48:10.093Z,98282.75
2022-10-01T17:50:43.776Z,98295.91
2022-10-01T17:53:14.971Z,98302.78
2022-10-01T17:55:42.565Z,98298.69
2022-10-01T17:58:10.023Z,98297.66
2022-10-01T18:00:37.311Z,98294.66
2022-10-01T18:03:04.403Z,98301.53
2022-10-01T18:05:31.398Z,98299.38
2022-10-01T18:07:58.262Z,98305.34
2022-10-01T18:10:25.043Z,98313.56
2022-10-01T18:12:51.896Z,98321.75
2022-10-01T18:15:20.932Z,98321.75
2022-10-01T18:17:52.221Z,98324.25
2022-10-01T18:20:21.069Z,98328.38
2022-10-01T18:22:48.748Z,98327.06
2022-10-01T18:25:16.173Z,98322.44
2022-10-01T18:27:43.664Z,98332.34
2022-10-01T18:30:10.920Z,98339.16
2022-10-01T18:32:43.135Z,98344.63
2022-10-01T18:35:19.437Z,98346.31
2022-10-01T18:37:51.514Z,98344.09
2022-10-01T18:40:21.324Z,98341.13
2022-10-01T18:42:54.259Z,98335.12
2022-10-01T18:45:33.404Z,98344.44
2022-10-01T18:48:39.053Z,98336.81
2022-10-01T18:51:20.206Z,98335.19
2022-10-01T18:54:06.191Z,98340.69
2022-10-01T18:56:36.253Z,98332.78
2022-10-01T18:59:06.047Z,98339.91
2022-10-01T19:02:02.147Z,98345.09
2022-10-01T19:04:44.141Z,98340.97
2022-10-01T19:07:17.045Z,98344.00
2022-10-01T19:09:52.052Z,98345.94
2022-10-01T19:13:11.712Z,98353.63
2022-10-01T19:16:03.747Z,98346.53
2022-10-01T19:18:46.370Z,98353.94
2022-10-01T19:21:27.815Z,98353.97
2022-10-01T19:23:54.947Z,98356.16
2022-10-01T19:26:24.366Z,98361.91
2022-10-01T19:29:17.171Z,98369.31
2022-10-01T19:31:59.150Z,98352.66
2022-10-01T19:35:06.083Z,98359.53
2022-10-01T19:37:45.150Z,98358.97
2022-10-01T19:40:20.934Z,98363.06
2022-10-01T19:43:13.009Z,98370.44
2022-10-01T19:46:20.751Z,98376.47
2022-10-01T19:49:00.676Z,98382.50
2022-10-01T19:51:36.339Z,98392.34
2022-10-01T19:54:03.823Z,98395.09
2022-10-01T19:56:34.105Z,98403.56
2022-10-01T19:59:11.999Z,98416.37
2022-10-01T20:01:48.580Z,98416.88
2022-10-01T20:04:28.207Z,98416.34
2022-10-01T20:07:12.151Z,98416.34
2022-10-01T20:09:45.402Z,98423.72
2022-10-01T20:12:24.374Z,98420.19
2022-10-01T20:15:19.972Z,98421.56
2022-10-01T20:18:05.222Z,98425.94
2022-10-01T20:20:50.482Z,98419.12
2022-10-01T20:23:33.429Z,98419.97
2022-10-01T20:26:06.425Z,98416.97
2022-10-01T20:28:42.061Z,98411.78
2022-10-01T20:31:27.533Z,98428.97
2022-10-01T20:34:19.853Z,98421.34
2022-10-01T20:37:11.488Z,98418.09
2022-10-01T20:39:44.696Z,98427.38
2022-10-01T20:42:18.262Z,98421.91
2022-10-01T20:44:45.501Z,98426.81
2022-10-01T20:47:19.782Z,98434.47
2022-10-01T20:49:55.143Z,98428.47
2022-10-01T20:52:44.712Z,98424.94
2022-10-01T20:55:26.707Z,98423.87
2022-10-01T20:57:58.668Z,98440.25
2022-10-01T21:00:28.006Z,98444.06
2022-10-01T21:03:13.251Z,98448.44
2022-10-01T21:05:54.087Z,98450.34
2022-10-01T21:08:48.936Z,98451.72
2022-10-01T21:11:39.871Z,98456.34
2022-10-01T21:14:23.379Z,98458.53
2022-10-01T21:17:27.120Z,98464.25
2022-10-01T21:20:21.134Z,98460.16
2022-10-01T21:23:01.006Z,98468.37
2022-10-01T21:25:27.750Z,98470.84
2022-10-01T21:28:21.671Z,98467.81
2022-10-01T21:30:54.449Z,98466.75
2022-10-01T21:33:31.432Z,98462.13
2022-10-01T21:36:30.824Z,98467.28
2022-10-01T21:39:11.321Z,98453.37
2022-10-01T21:41:52.178Z,98464.84
2022-10-01T21:44:37.520Z,98459.41
2022-10-01T21:47:19.490Z,98472.75
2022-10-01T21:50:11.207Z,98479.56
2022-10-01T21:52:55.352Z,98483.09
2022-10-01T21:55:41.425Z,98481.47
2022-10-01T21:58:08.078Z,98495.62
2022-10-01T22:00:34.987Z,98500.00
2022-10-01T22:03:10.813Z,98504.91
2022-10-01T22:05:40.778Z,98499.19
2022-10-01T22:08:41.611Z,98498.63
2022-10-01T22:11:16.057Z,98513.34
2022-10-01T22:13:59.008Z,98513.09
2022-10-01T22:16:30.865Z,98512.00
2022-10-01T22:19:03.377Z,98502.16
2022-10-01T22:21:44.787Z,98511.41
2022-10-01T22:24:17.493Z,98514.69
2022-10-01T22:26:54.033Z,98524.19
2022-10-01T22:29:27.124Z,98525.00
2022-10-01T22:31:58.680Z,98518.47
2022-10-01T22:34:34.297Z,98530.16
2022-10-01T22:37:18.166Z,98532.63
2022-10-01T22:39:53.546Z,98535.88
2022-10-01T22:42:30.615Z,98545.91
2022-10-01T22:45:02.737Z,98550.28
2022-10-01T22:47:52.917Z,98550.00
2022-10-01T22:51:07.160Z,98550.53
2022-10-01T22:53:50.295Z,98555.16
2022-10-01T22:56:39.155Z,98550.25
2022-10-01T22:59:42.537Z,98554.59
2022-10-01T23:02:29.732Z,98542.34
2022-10-01T23:05:10.059Z,98553.50
2022-10-01T23:07:52.848Z,98551.28
2022-10-01T23:10:33.360Z,98556.97
2022-10-01T23:13:19.293Z,98556.44
2022-10-01T23:16:04.496Z,98567.31
2022-10-01T23:18:40.356Z,98554.50
2022-10-01T23:21:27.824Z,98557.75
2022-10-01T23:24:01.859Z,98563.41
2022-10-01T23:26:54.210Z,98566.44
2022-10-01T23:29:36.198Z,98572.91
2022-10-01T23:32:20.981Z,98578.06
2022-10-01T23:34:59.894Z,98589.50
2022-10-01T23:38:06.185Z,98597.38
2022-10-01T23:40:42.179Z,98591.13
2022-10-01T23:43:22.472Z,98591.41
2022-10-01T23:46:04.550Z,98603.06
2022-10-01T23:48:43.037Z,98614.47
2022-10-01T23:51:25.487Z,98622.59
2022-10-01T23:54:19.341Z,98609.78
2022-10-01T23:56:55.278Z,98607.31
2022-10-01T23:59:31.111Z,98598.84
